LYTV/TIV METAR and TAF weather

Enter ICAO airport designator
Station Type Date Time Source
LYTV METAR 2022/01/27 16:30 UTC NOAA

LYTV 271630Z VRB02KT 9999 FEW060 06/00 Q1025 NOSIG


Station Type Date Time Source
LYTV Decoded METAR 2022/01/27 16:30 UTC NOAA

Tivat, Serbia and Montenegro (LYTV) 42-24N 018-44E 5M
Jan 27, 2022 - 11:30 AM EST / 2022.01.27 1630 UTC
Wind: Variable at 2 MPH (2 KT):0
Visibility: greater than 7 mile(s):0
Sky conditions: mostly clear
Temperature: 42 F (6 C)
Dew Point: 32 F (0 C)
Relative Humidity: 65%
Pressure (altimeter): 30.27 in. Hg (1025 hPa)
ob: LYTV 271630Z VRB02KT 9999 FEW060 06/00 Q1025 NOSIG
cycle: 16

Station Type Date Time Source
LYTV TAF 2022/01/27 12:21 UTC NOAA

TAF LYTV 271100Z 2712/2812 32008KT 9999 FEW050 SCT080 TX12/2713Z TN01/2805Z

Example: see airport list